createdAt,value
2023-04-11T00:00:59.315Z,99382.47
2023-04-11T00:03:27.963Z,99372.50
2023-04-11T00:05:56.296Z,99373.47
2023-04-11T00:08:24.180Z,99370.47
2023-04-11T00:10:52.590Z,99374.00
2023-04-11T00:13:20.626Z,99359.50
2023-04-11T00:15:48.510Z,99360.84
2023-04-11T00:18:17.263Z,99351.91
2023-04-11T00:20:45.148Z,99349.47
2023-04-11T00:23:13.275Z,99346.37
2023-04-11T00:25:41.753Z,99345.09
2023-04-11T00:28:10.347Z,99345.81
2023-04-11T00:30:39.133Z,99351.81
2023-04-11T00:33:07.512Z,99350.09
2023-04-11T00:35:38.029Z,99352.09
2023-04-11T00:38:06.328Z,99346.78
2023-04-11T00:40:34.650Z,99345.97
2023-04-11T00:43:02.543Z,99341.12
2023-04-11T00:45:30.670Z,99333.53
2023-04-11T00:47:59.101Z,99342.25
2023-04-11T00:50:27.401Z,99333.28
2023-04-11T00:52:55.937Z,99336.03
2023-04-11T00:55:24.378Z,99331.00
2023-04-11T00:57:54.308Z,99331.94
2023-04-11T01:00:22.792Z,99329.06
2023-04-11T01:02:51.386Z,99334.19
2023-04-11T01:05:20.388Z,99341.19
2023-04-11T01:07:50.771Z,99334.38
2023-04-11T01:10:19.544Z,99322.31
2023-04-11T01:12:47.794Z,99323.91
2023-04-11T01:15:16.031Z,99316.41
2023-04-11T01:17:44.491Z,99318.88
2023-04-11T01:20:13.139Z,99320.25
2023-04-11T01:22:42.203Z,99308.78
2023-04-11T01:25:10.862Z,99309.00
2023-04-11T01:27:38.918Z,99312.19
2023-04-11T01:30:07.658Z,99306.59
2023-04-11T01:32:36.107Z,99303.38
2023-04-11T01:35:04.967Z,99309.41
2023-04-11T01:37:33.084Z,99305.38
2023-04-11T01:40:02.130Z,99313.56
2023-04-11T01:42:31.028Z,99302.78
2023-04-11T01:44:59.803Z,99304.09
2023-04-11T01:47:28.152Z,99290.53
2023-04-11T01:49:56.244Z,99290.50
2023-04-11T01:52:25.236Z,99291.41
2023-04-11T01:54:53.549Z,99296.94
2023-04-11T01:57:21.635Z,99294.66
2023-04-11T01:59:49.861Z,99289.06
2023-04-11T02:02:18.552Z,99286.59
2023-04-11T02:04:46.923Z,99294.66
2023-04-11T02:07:15.524Z,99292.59
2023-04-11T02:09:43.454Z,99288.91
2023-04-11T02:12:11.675Z,99286.47
2023-04-11T02:14:44.734Z,99279.53
2023-04-11T02:17:14.369Z,99278.97
2023-04-11T02:19:45.622Z,99283.09
2023-04-11T02:22:14.324Z,99278.84
2023-04-11T02:24:42.773Z,99287.75
2023-04-11T02:27:11.350Z,99278.56
2023-04-11T02:29:39.275Z,99285.25
2023-04-11T02:32:07.753Z,99277.72
2023-04-11T02:34:36.061Z,99273.69
2023-04-11T02:37:04.473Z,99264.38
2023-04-11T02:39:33.998Z,99262.56
2023-04-11T02:42:01.990Z,99265.78
2023-04-11T02:44:30.940Z,99262.03
2023-04-11T02:47:00.379Z,99262.37
2023-04-11T02:49:28.895Z,99265.41
2023-04-11T02:51:57.354Z,99260.75
2023-04-11T02:54:25.857Z,99267.50
2023-04-11T02:56:56.081Z,99271.78
2023-04-11T02:59:24.099Z,99277.25
2023-04-11T03:02:00.921Z,99278.75
2023-04-11T03:04:29.414Z,99273.88
2023-04-11T03:06:59.145Z,99269.59
2023-04-11T03:09:27.492Z,99270.03
2023-04-11T03:11:56.251Z,99269.53
2023-04-11T03:14:24.584Z,99266.72
2023-04-11T03:16:52.582Z,99271.81
2023-04-11T03:19:20.523Z,99267.34
2023-04-11T03:21:48.934Z,99276.84
2023-04-11T03:24:18.127Z,99270.81
2023-04-11T03:26:46.089Z,99264.53
2023-04-11T03:29:14.533Z,99269.03
2023-04-11T03:31:43.260Z,99266.25
2023-04-11T03:34:11.282Z,99262.06
2023-04-11T03:36:41.473Z,99259.25
2023-04-11T03:39:09.613Z,99259.25
2023-04-11T03:41:37.667Z,99254.59
2023-04-11T03:44:08.197Z,99261.28
2023-04-11T03:46:36.471Z,99259.06
2023-04-11T03:49:04.733Z,99255.00
2023-04-11T03:51:33.834Z,99252.44
2023-04-11T03:54:02.228Z,99246.28
2023-04-11T03:56:30.727Z,99250.62
2023-04-11T03:58:59.258Z,99250.44
2023-04-11T04:01:27.817Z,99255.13
2023-04-11T04:03:57.033Z,99246.09
2023-04-11T04:06:27.201Z,99244.59
2023-04-11T04:08:55.580Z,99252.03
2023-04-11T04:11:24.032Z,99239.06
2023-04-11T04:13:54.436Z,99245.16
2023-04-11T04:16:22.872Z,99243.66
2023-04-11T04:18:51.985Z,99243.84
2023-04-11T04:21:20.801Z,99240.75
2023-04-11T04:23:50.719Z,99244.50
2023-04-11T04:26:25.358Z,99240.22
2023-04-11T04:28:54.252Z,99245.66
2023-04-11T04:31:26.030Z,99244.78
2023-04-11T04:33:58.838Z,99241.00
2023-04-11T04:36:28.723Z,99238.78
2023-04-11T04:39:02.327Z,99241.22
2023-04-11T04:41:36.560Z,99237.00
2023-04-11T04:44:05.514Z,99232.81
2023-04-11T04:46:37.051Z,99234.69
2023-04-11T04:49:07.175Z,99230.81
2023-04-11T04:51:37.294Z,99225.75
2023-04-11T04:54:06.910Z,99231.34
2023-04-11T04:56:35.351Z,99224.13
2023-04-11T04:59:04.085Z,99228.56
2023-04-11T05:01:33.263Z,99228.50
2023-04-11T05:04:03.116Z,99222.09
2023-04-11T05:06:32.759Z,99227.31
2023-04-11T05:09:02.524Z,99223.37
2023-04-11T05:11:30.755Z,99224.22
2023-04-11T05:13:58.887Z,99217.25
2023-04-11T05:16:27.732Z,99219.25
2023-04-11T05:18:57.193Z,99224.53
2023-04-11T05:21:25.318Z,99214.13
2023-04-11T05:23:53.999Z,99213.38
2023-04-11T05:26:22.516Z,99209.16
2023-04-11T05:28:50.837Z,99208.91
2023-04-11T05:31:19.377Z,99209.78
2023-04-11T05:33:47.698Z,99214.56
2023-04-11T05:36:16.203Z,99213.63
2023-04-11T05:38:45.149Z,99220.97
2023-04-11T05:41:13.217Z,99214.19
2023-04-11T05:43:41.280Z,99201.22
2023-04-11T05:46:10.029Z,99212.81
2023-04-11T05:48:38.444Z,99202.41
2023-04-11T05:51:08.109Z,99205.53
2023-04-11T05:53:36.359Z,99194.44
2023-04-11T05:56:04.587Z,99186.03
2023-04-11T05:58:32.652Z,99193.44
2023-04-11T06:01:01.135Z,99189.44
2023-04-11T06:03:29.521Z,99195.50
2023-04-11T06:05:57.606Z,99190.56
2023-04-11T06:08:25.817Z,99184.16
2023-04-11T06:10:54.196Z,99184.81
2023-04-11T06:13:22.226Z,99183.56
2023-04-11T06:15:50.367Z,99184.94
2023-04-11T06:18:18.810Z,99186.66
2023-04-11T06:20:47.380Z,99179.69
2023-04-11T06:23:16.492Z,99174.72
2023-04-11T06:25:45.806Z,99172.63
2023-04-11T06:28:14.449Z,99178.50
2023-04-11T06:30:42.375Z,99170.00
2023-04-11T06:33:10.754Z,99171.66
2023-04-11T06:35:38.891Z,99165.19
2023-04-11T06:38:06.983Z,99172.81
2023-04-11T06:40:35.613Z,99170.84
2023-04-11T06:43:03.522Z,99167.66
2023-04-11T06:45:31.900Z,99171.16
2023-04-11T06:48:00.379Z,99173.44
2023-04-11T06:50:28.449Z,99176.03
2023-04-11T06:52:58.536Z,99180.78
2023-04-11T06:55:27.360Z,99170.78
2023-04-11T06:57:55.624Z,99175.44
2023-04-11T07:00:23.914Z,99165.97
2023-04-11T07:02:52.961Z,99161.41
2023-04-11T07:05:21.344Z,99162.63
2023-04-11T07:07:49.314Z,99157.75
2023-04-11T07:10:17.722Z,99150.97
2023-04-11T07:12:45.908Z,99145.63
2023-04-11T07:15:13.884Z,99135.34
2023-04-11T07:17:42.332Z,99141.44
2023-04-11T07:20:12.112Z,99140.59
2023-04-11T07:22:43.498Z,99145.06
2023-04-11T07:25:11.887Z,99143.75
2023-04-11T07:27:43.926Z,99143.72
2023-04-11T07:30:12.885Z,99142.81
2023-04-11T07:32:41.155Z,99146.84
2023-04-11T07:35:09.735Z,99148.00
2023-04-11T07:37:38.462Z,99147.91
2023-04-11T07:40:10.370Z,99152.56
2023-04-11T07:42:41.155Z,99150.84
2023-04-11T07:45:09.686Z,99147.75
2023-04-11T07:47:38.436Z,99155.06
2023-04-11T07:50:07.579Z,99146.78
2023-04-11T07:52:35.918Z,99146.75
2023-04-11T07:55:04.664Z,99143.66
2023-04-11T07:57:32.702Z,99146.59
2023-04-11T08:00:00.731Z,99140.91
2023-04-11T08:02:29.268Z,99137.03
2023-04-11T08:04:57.974Z,99148.28
2023-04-11T08:07:28.420Z,99137.44
2023-04-11T08:09:57.900Z,99132.37
2023-04-11T08:12:26.230Z,99128.06
2023-04-11T08:14:54.285Z,99118.28
2023-04-11T08:17:28.947Z,99111.66
2023-04-11T08:19:57.948Z,99112.47
2023-04-11T08:22:26.879Z,99116.31
2023-04-11T08:24:54.953Z,99114.78
2023-04-11T08:27:23.362Z,99105.81
2023-04-11T08:29:51.374Z,99103.00
2023-04-11T08:32:19.364Z,99097.41
2023-04-11T08:34:47.659Z,99092.91
2023-04-11T08:37:15.830Z,99087.66
2023-04-11T08:39:44.947Z,99087.06
2023-04-11T08:42:23.637Z,99076.56
2023-04-11T08:44:56.094Z,99073.63
2023-04-11T08:47:24.689Z,99069.88
2023-04-11T08:49:53.148Z,99066.75
2023-04-11T08:52:21.575Z,99067.59
2023-04-11T08:54:52.535Z,99047.38
2023-04-11T08:57:28.038Z,99048.44
2023-04-11T08:59:57.839Z,99053.00
2023-04-11T09:02:26.027Z,99049.81
2023-04-11T09:04:54.865Z,99059.81
2023-04-11T09:07:23.181Z,99048.81
2023-04-11T09:09:51.267Z,99055.87
2023-04-11T09:12:22.320Z,99044.72
2023-04-11T09:14:50.694Z,99043.09
2023-04-11T09:17:20.612Z,99036.56
2023-04-11T09:19:49.357Z,99025.22
2023-04-11T09:22:18.149Z,99036.78
2023-04-11T09:25:02.417Z,99027.22
2023-04-11T09:27:34.477Z,99022.16
2023-04-11T09:30:02.645Z,99011.22
2023-04-11T09:32:35.123Z,99007.97
2023-04-11T09:35:24.359Z,99010.59
2023-04-11T09:38:01.066Z,99018.56
2023-04-11T09:40:32.065Z,99017.44
2023-04-11T09:43:01.853Z,99028.56
2023-04-11T09:45:38.196Z,99021.69
2023-04-11T09:48:15.063Z,99009.22
2023-04-11T09:50:46.195Z,99004.78
2023-04-11T09:53:17.094Z,98995.75
2023-04-11T09:55:48.141Z,98983.41
2023-04-11T09:58:18.277Z,98985.81
2023-04-11T10:00:47.853Z,98984.28
2023-04-11T10:03:20.486Z,98985.66
2023-04-11T10:05:49.993Z,98986.81
2023-04-11T10:08:26.964Z,98978.78
2023-04-11T10:10:57.063Z,98977.78
2023-04-11T10:13:47.203Z,98988.41
2023-04-11T10:16:20.552Z,98968.22
2023-04-11T10:18:55.275Z,98953.22
2023-04-11T10:21:34.295Z,98954.91
2023-04-11T10:24:22.057Z,98954.94
2023-04-11T10:27:05.433Z,98949.37
2023-04-11T10:29:48.416Z,98948.97
2023-04-11T10:32:22.394Z,98940.25
2023-04-11T10:34:51.079Z,98933.28
2023-04-11T10:37:19.894Z,98927.69
2023-04-11T10:40:01.101Z,98931.22
2023-04-11T10:42:46.960Z,98931.59
2023-04-11T10:45:24.720Z,98929.19
2023-04-11T10:48:02.617Z,98916.84
2023-04-11T10:50:32.099Z,98919.31
2023-04-11T10:53:02.015Z,98915.28
2023-04-11T10:55:36.047Z,98909.22
2023-04-11T10:58:14.206Z,98900.81
2023-04-11T11:00:59.122Z,98902.09
2023-04-11T11:03:30.767Z,98907.69
2023-04-11T11:06:04.258Z,98901.84
2023-04-11T11:08:43.644Z,98894.03
2023-04-11T11:11:14.088Z,98881.59
2023-04-11T11:13:45.064Z,98880.81
2023-04-11T11:16:18.003Z,98884.53
2023-04-11T11:18:49.194Z,98872.59
2023-04-11T11:21:26.746Z,98875.69
2023-04-11T11:24:00.574Z,98870.31
2023-04-11T11:26:44.453Z,98867.47
2023-04-11T11:29:14.137Z,98861.44
2023-04-11T11:31:48.047Z,98850.06
2023-04-11T11:34:31.200Z,98853.41
2023-04-11T11:37:03.189Z,98838.00
2023-04-11T11:39:32.433Z,98847.53
2023-04-11T11:42:00.807Z,98849.72
2023-04-11T11:44:30.346Z,98844.34
2023-04-11T11:47:06.391Z,98844.78
2023-04-11T11:49:54.932Z,98840.31
2023-04-11T11:52:45.214Z,98846.47
2023-04-11T11:55:19.384Z,98841.28
2023-04-11T11:57:50.251Z,98841.75
2023-04-11T12:00:28.492Z,98836.88
2023-04-11T12:03:00.094Z,98834.84
2023-04-11T12:05:31.445Z,98839.34
2023-04-11T12:08:02.387Z,98842.78
2023-04-11T12:10:45.924Z,98841.19
2023-04-11T12:13:15.333Z,98838.44
2023-04-11T12:15:51.939Z,98839.94
2023-04-11T12:18:22.295Z,98838.16
2023-04-11T12:20:51.573Z,98841.94
2023-04-11T12:23:20.287Z,98846.72
2023-04-11T12:25:48.923Z,98829.09
2023-04-11T12:28:17.053Z,98829.00
2023-04-11T12:30:47.057Z,98823.62
2023-04-11T12:33:16.625Z,98830.81
2023-04-11T12:35:46.223Z,98828.19
2023-04-11T12:38:17.436Z,98819.37
2023-04-11T12:40:47.244Z,98820.69
2023-04-11T12:43:16.869Z,98811.00
2023-04-11T12:45:51.321Z,98807.75
2023-04-11T12:48:26.451Z,98801.81
2023-04-11T12:50:54.863Z,98799.16
2023-04-11T12:53:25.129Z,98802.53
2023-04-11T12:55:53.145Z,98792.44
2023-04-11T12:58:21.616Z,98784.62
2023-04-11T13:00:49.615Z,98789.22
2023-04-11T13:03:17.853Z,98791.50
2023-04-11T13:05:46.384Z,98787.22
2023-04-11T13:08:14.582Z,98783.44
2023-04-11T13:10:44.118Z,98781.84
2023-04-11T13:13:18.287Z,98779.34
2023-04-11T13:15:46.884Z,98773.81
2023-04-11T13:18:15.886Z,98771.41
2023-04-11T13:20:45.223Z,98768.88
2023-04-11T13:23:14.869Z,98765.75
2023-04-11T13:25:45.999Z,98756.16
2023-04-11T13:28:13.901Z,98758.63
2023-04-11T13:30:41.928Z,98760.63
2023-04-11T13:33:12.420Z,98764.66
2023-04-11T13:35:41.587Z,98758.78
2023-04-11T13:38:11.470Z,98748.69
2023-04-11T13:40:41.520Z,98751.06
2023-04-11T13:43:10.255Z,98756.47
2023-04-11T13:45:38.235Z,98753.16
2023-04-11T13:48:06.611Z,98755.38
2023-04-11T13:50:35.161Z,98749.63
2023-04-11T13:53:07.853Z,98749.56
2023-04-11T13:55:36.614Z,98750.87
2023-04-11T13:58:05.231Z,98749.50
2023-04-11T14:00:38.329Z,98759.22
2023-04-11T14:03:17.557Z,98762.72
2023-04-11T14:05:48.388Z,98759.72
2023-04-11T14:08:17.539Z,98760.91
2023-04-11T14:10:45.552Z,98754.69
2023-04-11T14:13:15.834Z,98762.19
2023-04-11T14:15:47.636Z,98760.75
2023-04-11T14:18:18.398Z,98759.09
2023-04-11T14:20:49.812Z,98769.31
2023-04-11T14:23:19.318Z,98766.63
2023-04-11T14:25:50.417Z,98774.63
2023-04-11T14:28:18.928Z,98782.56
2023-04-11T14:30:47.567Z,98786.78
2023-04-11T14:33:15.937Z,98793.84
2023-04-11T14:35:47.412Z,98792.25
2023-04-11T14:38:16.217Z,98804.53
2023-04-11T14:40:44.752Z,98800.94
2023-04-11T14:43:12.889Z,98796.53
2023-04-11T14:45:41.425Z,98799.81
2023-04-11T14:48:09.359Z,98820.56
2023-04-11T14:50:37.330Z,98821.97
2023-04-11T14:53:05.703Z,98822.94
2023-04-11T14:55:33.928Z,98829.56
2023-04-11T14:58:01.882Z,98830.66
2023-04-11T15:00:33.429Z,98839.94
2023-04-11T15:03:01.937Z,98838.34
2023-04-11T15:05:30.389Z,98837.75
2023-04-11T15:07:58.351Z,98833.09
2023-04-11T15:10:26.727Z,98842.75
2023-04-11T15:12:54.968Z,98841.56
2023-04-11T15:15:23.009Z,98850.41
2023-04-11T15:18:28.197Z,98847.34
2023-04-11T15:20:58.087Z,98837.44
2023-04-11T15:23:26.319Z,98836.56
2023-04-11T15:26:01.340Z,98842.50
2023-04-11T15:28:36.033Z,98843.19
2023-04-11T15:31:05.884Z,98836.19
2023-04-11T15:33:34.508Z,98845.72
2023-04-11T15:36:02.631Z,98846.38
2023-04-11T15:38:32.346Z,98846.78
2023-04-11T15:41:00.733Z,98843.69
2023-04-11T15:43:28.606Z,98840.72
2023-04-11T15:48:25.068Z,98842.66
2023-04-11T15:50:53.015Z,98834.22
2023-04-11T15:53:21.119Z,98840.69
2023-04-11T15:55:49.548Z,98821.13
2023-04-11T15:58:18.536Z,98825.63
2023-04-11T16:00:47.341Z,98825.19
2023-04-11T16:03:16.865Z,98820.72
2023-04-11T16:05:45.870Z,98816.75
2023-04-11T16:08:13.876Z,98808.50
2023-04-11T16:10:42.206Z,98806.41
2023-04-11T16:13:10.887Z,98804.25
2023-04-11T16:15:38.798Z,98807.75
2023-04-11T16:18:07.296Z,98805.59
2023-04-11T16:20:35.311Z,98797.97
2023-04-11T16:23:03.506Z,98794.94
2023-04-11T16:25:31.977Z,98795.63
2023-04-11T16:27:59.876Z,98798.78
2023-04-11T16:30:29.464Z,98792.53
2023-04-11T16:32:58.064Z,98792.09
2023-04-11T16:35:26.192Z,98786.53
2023-04-11T16:37:54.526Z,98781.78
2023-04-11T16:40:22.885Z,98783.94
2023-04-11T16:42:50.963Z,98791.06
2023-04-11T16:45:19.027Z,98787.22
2023-04-11T16:47:47.429Z,98785.03
2023-04-11T16:50:16.125Z,98778.66
2023-04-11T16:52:43.988Z,98785.97
2023-04-11T16:55:12.429Z,98777.72
2023-04-11T16:57:40.624Z,98773.44
2023-04-11T17:00:18.762Z,98762.31
2023-04-11T17:02:47.572Z,98765.72
2023-04-11T17:05:15.815Z,98757.50
2023-04-11T17:07:44.002Z,98766.00
2023-04-11T17:10:12.520Z,98767.69
2023-04-11T17:12:40.621Z,98772.19
2023-04-11T17:15:09.107Z,98779.34
2023-04-11T17:17:37.572Z,98775.31
2023-04-11T17:20:09.906Z,98783.72
2023-04-11T17:22:41.669Z,98781.37
2023-04-11T17:25:10.321Z,98782.94
2023-04-11T17:27:39.188Z,98780.81
2023-04-11T17:30:09.770Z,98783.22
2023-04-11T17:32:38.383Z,98782.78
2023-04-11T17:35:07.418Z,98775.75
2023-04-11T17:37:36.180Z,98764.97
2023-04-11T17:40:11.133Z,98774.72
2023-04-11T17:42:39.603Z,98780.56
2023-04-11T17:45:17.836Z,98771.22
2023-04-11T17:47:47.848Z,98781.19
2023-04-11T17:50:16.763Z,98777.94
2023-04-11T17:52:46.400Z,98780.28
2023-04-11T17:55:17.074Z,98781.44
2023-04-11T17:57:46.566Z,98781.59
2023-04-11T18:00:23.099Z,98776.50
2023-04-11T18:02:54.773Z,98779.97
2023-04-11T18:05:25.663Z,98784.28
2023-04-11T18:07:57.509Z,98780.75
2023-04-11T18:10:27.718Z,98790.03
2023-04-11T18:12:57.279Z,98788.59
2023-04-11T18:15:26.380Z,98802.72
2023-04-11T18:17:54.781Z,98795.94
2023-04-11T18:20:23.373Z,98793.72
2023-04-11T18:22:54.906Z,98794.59
2023-04-11T18:25:23.549Z,98802.19
2023-04-11T18:27:51.657Z,98808.44
2023-04-11T18:30:19.894Z,98807.41
2023-04-11T18:32:50.432Z,98820.06
2023-04-11T18:35:18.938Z,98816.69
2023-04-11T18:37:47.354Z,98815.50
2023-04-11T18:40:16.723Z,98816.88
2023-04-11T18:42:48.288Z,98824.50
2023-04-11T18:45:23.263Z,98822.53
2023-04-11T18:47:51.518Z,98819.31
2023-04-11T18:50:20.416Z,98815.22
2023-04-11T18:52:52.592Z,98827.47
2023-04-11T18:55:23.449Z,98819.78
2023-04-11T18:57:55.670Z,98817.97
2023-04-11T19:00:28.408Z,98821.50
2023-04-11T19:02:59.989Z,98816.00
2023-04-11T19:05:30.792Z,98818.59
2023-04-11T19:08:00.560Z,98807.16
2023-04-11T19:10:30.565Z,98812.78
2023-04-11T19:12:59.002Z,98811.75
2023-04-11T19:15:27.216Z,98813.75
2023-04-11T19:17:56.322Z,98810.41
2023-04-11T19:20:27.374Z,98810.78
2023-04-11T19:22:56.182Z,98802.19
2023-04-11T19:25:24.577Z,98803.87
2023-04-11T19:27:52.573Z,98803.87
2023-04-11T19:30:21.221Z,98796.31
2023-04-11T19:32:51.063Z,98798.84
2023-04-11T19:35:21.798Z,98791.66
2023-04-11T19:37:50.210Z,98791.44
2023-04-11T19:40:18.993Z,98791.19
2023-04-11T19:42:47.506Z,98793.25
2023-04-11T19:45:16.215Z,98787.91
2023-04-11T19:47:44.452Z,98805.28
2023-04-11T19:50:13.493Z,98805.41
2023-04-11T19:52:44.613Z,98810.56
2023-04-11T19:55:12.833Z,98812.75
2023-04-11T19:57:44.087Z,98803.97
2023-04-11T20:00:14.289Z,98797.41
2023-04-11T20:02:46.407Z,98783.75
2023-04-11T20:05:16.681Z,98782.13
2023-04-11T20:07:46.390Z,98787.28
2023-04-11T20:10:15.545Z,98800.75
2023-04-11T20:12:43.699Z,98803.69
2023-04-11T20:15:12.287Z,98814.22
2023-04-11T20:17:40.569Z,98814.16
2023-04-11T20:20:09.200Z,98804.97
2023-04-11T20:22:38.564Z,98813.44
2023-04-11T20:25:08.460Z,98806.53
2023-04-11T20:27:37.522Z,98804.56
2023-04-11T20:30:13.080Z,98789.97
2023-04-11T20:32:41.849Z,98784.53
2023-04-11T20:35:12.451Z,98789.47
2023-04-11T20:37:43.925Z,98776.84
2023-04-11T20:40:14.349Z,98781.22
2023-04-11T20:42:47.764Z,98784.25
2023-04-11T20:45:20.919Z,98793.53
2023-04-11T20:47:50.593Z,98773.09
2023-04-11T20:50:20.549Z,98756.81
2023-04-11T20:52:54.145Z,98727.13
2023-04-11T20:55:22.507Z,98740.25
2023-04-11T20:57:50.934Z,98738.72
2023-04-11T21:00:20.145Z,98723.88
2023-04-11T21:02:50.735Z,98723.84
2023-04-11T21:05:25.172Z,98721.31
2023-04-11T21:07:54.700Z,98731.38
2023-04-11T21:10:22.980Z,98735.87
2023-04-11T21:12:54.560Z,98738.63
2023-04-11T21:15:23.342Z,98734.66
2023-04-11T21:17:52.696Z,98735.19
2023-04-11T21:20:22.523Z,98721.81
2023-04-11T21:22:55.718Z,98714.16
2023-04-11T21:25:25.498Z,98721.28
2023-04-11T21:27:54.815Z,98726.72
2023-04-11T21:30:23.912Z,98727.53
2023-04-11T21:32:52.587Z,98735.44
2023-04-11T21:35:21.958Z,98734.59
2023-04-11T21:37:51.429Z,98739.59
2023-04-11T21:40:19.763Z,98726.44
2023-04-11T21:42:48.351Z,98727.31
2023-04-11T21:45:16.603Z,98737.53
2023-04-11T21:47:44.789Z,98723.81
2023-04-11T21:50:13.752Z,98739.25
2023-04-11T21:52:41.734Z,98740.00
2023-04-11T21:55:10.113Z,98723.75
2023-04-11T21:57:38.432Z,98726.25
2023-04-11T22:00:08.141Z,98723.88
2023-04-11T22:02:40.687Z,98723.91
2023-04-11T22:05:09.630Z,98726.34
2023-04-11T22:07:46.827Z,98718.94
2023-04-11T22:10:22.639Z,98728.78
2023-04-11T22:12:54.051Z,98732.97
2023-04-11T22:15:24.324Z,98732.78
2023-04-11T22:17:54.793Z,98726.84
2023-04-11T22:20:23.133Z,98719.06
2023-04-11T22:22:51.146Z,98716.59
2023-04-11T22:25:22.606Z,98731.28
2023-04-11T22:27:54.575Z,98724.59
2023-04-11T22:30:23.697Z,98722.81
2023-04-11T22:32:54.279Z,98719.25
2023-04-11T22:35:25.132Z,98711.38
2023-04-11T22:37:57.352Z,98715.00
2023-04-11T22:40:25.350Z,98710.91
2023-04-11T22:42:54.340Z,98712.59
2023-04-11T22:45:23.458Z,98703.91
2023-04-11T22:47:55.786Z,98701.53
2023-04-11T22:50:24.131Z,98705.87
2023-04-11T22:52:52.043Z,98709.38
2023-04-11T22:55:21.312Z,98715.38
2023-04-11T22:57:49.716Z,98709.38
2023-04-11T23:00:19.151Z,98723.09
2023-04-11T23:02:47.401Z,98721.53
2023-04-11T23:05:16.968Z,98711.84
2023-04-11T23:07:44.899Z,98723.03
2023-04-11T23:10:15.206Z,98723.06
2023-04-11T23:12:44.625Z,98734.13
2023-04-11T23:15:12.736Z,98723.13
2023-04-11T23:17:48.010Z,98724.62
2023-04-11T23:20:17.730Z,98727.22
2023-04-11T23:22:45.756Z,98714.50
2023-04-11T23:25:15.429Z,98713.63
2023-04-11T23:27:44.545Z,98712.75
2023-04-11T23:30:13.266Z,98711.06
2023-04-11T23:32:41.944Z,98710.03
2023-04-11T23:35:10.941Z,98711.75
2023-04-11T23:37:39.203Z,98705.69
2023-04-11T23:40:11.076Z,98711.81
2023-04-11T23:42:40.438Z,98706.59
2023-04-11T23:45:09.274Z,98709.09
2023-04-11T23:47:37.935Z,98711.91
2023-04-11T23:50:06.564Z,98705.87
2023-04-11T23:52:34.780Z,98706.66
2023-04-11T23:55:02.733Z,98715.38
2023-04-11T23:57:31.024Z,98712.69
2023-04-11T23:59:59.020Z,98709.19
